Time;durP1;ratioP1;P1;durP2;ratioP2;P2;SDS_P1;SDS_P2;PMS_P1;PMS_P2;Temp;Humidity;BMP_temperature;BMP_pressure;BME280_temperature;BME280_humidity;BME280_pressure;Samples;Min_cycle;Max_cycle;Signal;HPM_P1;HPM_P2
2022/06/01 00:00:50;;;;;;;2.00;1.90;;;10.60;97.60;;;;;;5121512;27;20246;-77
2022/06/01 00:03:17;;;;;;;2.30;1.70;;;10.50;97.70;;;;;;5113248;27;20232;-77
2022/06/01 00:05:44;;;;;;;2.93;2.13;;;10.40;97.70;;;;;;5118433;27;20229;-77
2022/06/01 00:08:11;;;;;;;2.50;1.73;;;10.40;97.80;;;;;;5123858;27;20227;-76
2022/06/01 00:10:38;;;;;;;3.73;1.70;;;10.30;98.00;;;;;;5099389;27;20321;-76
2022/06/01 00:13:05;;;;;;;2.43;2.00;;;10.30;98.20;;;;;;5119650;27;20729;-76
2022/06/01 00:15:32;;;;;;;2.10;1.70;;;10.20;98.20;;;;;;5125130;27;20726;-77
2022/06/01 00:18:00;;;;;;;1.80;1.70;;;10.20;98.40;;;;;;5118037;27;20651;-77
2022/06/01 00:20:28;;;;;;;1.70;1.60;;;10.20;98.50;;;;;;5126189;27;20224;-76
2022/06/01 00:22:56;;;;;;;2.50;1.97;;;10.10;98.50;;;;;;5102349;27;20311;-77
2022/06/01 00:25:24;;;;;;;3.47;1.90;;;10.10;98.60;;;;;;5121525;27;20268;-77
2022/06/01 00:27:51;;;;;;;3.43;1.77;;;10.10;98.70;;;;;;5120926;27;20218;-77
2022/06/01 00:30:19;;;;;;;2.23;1.70;;;10.00;98.80;;;;;;5120579;27;20225;-77
2022/06/01 00:32:46;;;;;;;2.13;1.70;;;10.00;98.90;;;;;;5107888;27;20569;-77
2022/06/01 00:35:16;;;;;;;2.47;1.63;;;10.00;98.90;;;;;;5118588;27;20260;-78
2022/06/01 00:37:43;;;;;;;2.97;1.43;;;10.00;99.20;;;;;;5120198;27;20276;-77
2022/06/01 00:40:13;;;;;;;3.60;1.93;;;10.00;99.10;;;;;;5119997;27;20221;-77
2022/06/01 00:42:43;;;;;;;1.73;1.63;;;9.90;99.30;;;;;;5103756;27;20652;-77
2022/06/01 00:45:12;;;;;;;2.30;1.50;;;9.90;99.50;;;;;;5115822;27;20325;-77
2022/06/01 00:47:39;;;;;;;2.83;1.83;;;9.90;99.60;;;;;;5118179;27;20297;-77
2022/06/01 00:50:10;;;;;;;1.80;1.70;;;9.90;99.60;;;;;;5099328;27;20221;-77
2022/06/01 00:52:45;;;;;;;1.70;1.60;;;9.90;99.80;;;;;;5102430;27;20224;-78
2022/06/01 00:55:17;;;;;;;2.17;1.80;;;9.90;99.60;;;;;;5116783;27;20220;-77
2022/06/01 00:57:47;;;;;;;2.53;1.37;;;9.90;99.50;;;;;;5097716;27;20233;-76
2022/06/01 01:00:17;;;;;;;1.70;1.60;;;9.80;99.30;;;;;;5096255;27;20758;-76
2022/06/01 01:02:45;;;;;;;1.87;1.67;;;9.80;99.60;;;;;;5117647;27;20220;-77
2022/06/01 01:05:14;;;;;;;1.30;1.20;;;9.70;99.70;;;;;;5116608;27;20236;-77
2022/06/01 01:07:43;;;;;;;3.47;1.83;;;9.70;99.80;;;;;;5121089;27;20759;-77
2022/06/01 01:10:11;;;;;;;2.10;1.50;;;9.70;99.90;;;;;;5119515;27;20217;-77
2022/06/01 01:12:58;;;;;;;2.43;1.70;;;9.70;99.80;;;;;;5107442;27;20589;-77
2022/06/01 01:15:28;;;;;;;1.60;1.50;;;9.60;99.80;;;;;;5103565;27;20678;-77
2022/06/01 01:17:55;;;;;;;2.23;1.50;;;9.60;99.80;;;;;;5117495;27;20270;-78
2022/06/01 01:20:24;;;;;;;2.07;1.50;;;9.50;99.80;;;;;;5120603;27;20216;-77
2022/06/01 01:23:01;;;;;;;2.23;1.47;;;9.50;99.90;;;;;;5123952;27;20224;-77
2022/06/01 01:25:32;;;;;;;2.03;1.40;;;9.40;99.90;;;;;;5120530;27;21339;-77
2022/06/01 01:28:02;;;;;;;1.60;1.50;;;9.40;99.90;;;;;;5121837;27;20243;-77
2022/06/01 01:30:46;;;;;;;1.77;1.30;;;9.30;99.90;;;;;;5100156;27;20224;-77
2022/06/01 01:33:16;;;;;;;2.40;1.53;;;9.30;99.90;;;;;;5119663;27;20239;-77
2022/06/01 01:35:45;;;;;;;1.87;1.67;;;9.20;99.90;;;;;;5117082;27;20231;-77
2022/06/01 01:38:17;;;;;;;1.70;1.60;;;9.20;99.90;;;;;;5104558;27;20278;-77
2022/06/01 01:40:45;;;;;;;1.70;1.50;;;9.10;99.90;;;;;;5121121;27;20527;-77
2022/06/01 01:43:12;;;;;;;3.30;1.77;;;9.10;99.90;;;;;;5103349;27;20231;-77
2022/06/01 01:45:39;;;;;;;2.23;2.03;;;9.00;99.90;;;;;;5127239;27;20223;-77
2022/06/01 01:48:06;;;;;;;2.87;2.10;;;9.00;99.90;;;;;;5103082;27;20727;-77
2022/06/01 01:50:33;;;;;;;1.93;1.67;;;9.00;99.90;;;;;;5119904;27;20231;-76
2022/06/01 01:53:00;;;;;;;2.67;1.60;;;9.00;99.90;;;;;;5121679;27;20231;-76
2022/06/01 01:55:39;;;;;;;2.03;1.80;;;8.90;99.90;;;;;;5121006;27;20231;-76
2022/06/01 01:58:16;;;;;;;2.13;1.70;;;8.90;99.90;;;;;;5099928;27;20236;-76
2022/06/01 02:00:47;;;;;;;3.03;1.63;;;8.80;99.90;;;;;;5119896;27;20682;-77
2022/06/01 02:03:18;;;;;;;1.83;1.60;;;8.80;99.90;;;;;;5115587;27;20217;-76
2022/06/01 02:06:04;;;;;;;2.50;1.80;;;8.80;99.90;;;;;;5121065;27;20251;-77
2022/06/01 02:08:34;;;;;;;5.80;2.17;;;8.70;99.90;;;;;;5121733;27;20296;-77
2022/06/01 02:13:53;;;;;;;1.97;1.83;;;8.70;99.90;;;;;;5117564;27;21262;-77
2022/06/01 02:16:23;;;;;;;2.20;1.70;;;8.60;99.90;;;;;;5118895;27;20251;-77
2022/06/01 02:18:53;;;;;;;2.57;1.93;;;8.60;99.90;;;;;;5119888;27;20239;-78
2022/06/01 02:21:26;;;;;;;2.37;1.73;;;8.60;99.90;;;;;;5116188;27;20227;-78
2022/06/01 02:23:54;;;;;;;2.17;1.80;;;8.60;99.90;;;;;;5103229;27;21097;-78
2022/06/01 02:26:22;;;;;;;2.20;1.87;;;8.50;99.90;;;;;;5123978;27;21129;-78
2022/06/01 02:28:54;;;;;;;2.53;1.90;;;8.50;99.90;;;;;;5117549;27;20245;-77
2022/06/01 02:31:22;;;;;;;1.90;1.80;;;8.50;99.90;;;;;;5121691;27;20228;-78
2022/06/01 02:33:51;;;;;;;2.03;1.70;;;8.40;99.90;;;;;;5097552;27;20248;-77
2022/06/01 02:36:20;;;;;;;2.73;1.57;;;8.40;99.90;;;;;;5097750;27;20224;-78
2022/06/01 02:38:49;;;;;;;2.77;1.90;;;8.40;99.90;;;;;;5116919;27;20216;-76
2022/06/01 02:44:03;;;;;;;2.00;1.80;;;8.30;99.90;;;;;;5117506;27;20241;-76
2022/06/01 02:46:30;;;;;;;2.70;2.50;;;8.30;99.90;;;;;;5117600;27;20322;-77
2022/06/01 02:48:57;;;;;;;2.57;2.37;;;8.30;99.90;;;;;;5124894;27;20308;-77
2022/06/01 02:51:24;;;;;;;2.30;2.10;;;8.20;99.90;;;;;;5119822;27;20238;-77
2022/06/01 02:53:51;;;;;;;2.63;1.87;;;8.20;99.90;;;;;;5116899;27;21009;-77
2022/06/01 02:56:18;;;;;;;2.90;1.90;;;8.20;99.90;;;;;;5121463;27;20326;-76
2022/06/01 02:58:45;;;;;;;2.93;2.00;;;8.20;99.90;;;;;;5118865;27;20260;-77
2022/06/01 03:01:13;;;;;;;3.53;1.90;;;8.20;99.90;;;;;;5125486;27;20268;-77
2022/06/01 03:03:40;;;;;;;2.60;2.10;;;8.20;99.90;;;;;;5112542;27;20937;-77
2022/06/01 03:06:08;;;;;;;2.30;2.10;;;8.20;99.90;;;;;;5100500;27;20553;-77
2022/06/01 03:08:35;;;;;;;2.10;1.73;;;8.20;99.90;;;;;;5116346;27;20223;-77
2022/06/01 03:11:02;;;;;;;2.00;1.80;;;8.20;99.90;;;;;;5098520;28;20238;-77
2022/06/01 03:13:30;;;;;;;2.70;1.87;;;8.20;99.90;;;;;;5113245;27;20710;-76
2022/06/01 03:15:58;;;;;;;2.53;1.90;;;8.20;99.90;;;;;;5118562;27;20317;-77
2022/06/01 03:18:26;;;;;;;1.97;1.70;;;8.20;99.90;;;;;;5119915;27;20280;-77
2022/06/01 03:20:53;;;;;;;2.03;1.83;;;8.20;99.90;;;;;;5096591;28;20910;-76
2022/06/01 03:23:20;;;;;;;3.17;2.20;;;8.20;99.90;;;;;;5110307;27;20300;-76
2022/06/01 03:25:47;;;;;;;2.80;2.07;;;8.20;99.90;;;;;;5098053;28;20228;-76
2022/06/01 03:28:15;;;;;;;2.93;2.03;;;8.20;99.90;;;;;;5114062;27;20254;-76
2022/06/01 03:30:43;;;;;;;2.17;1.93;;;8.20;99.90;;;;;;5117404;27;20707;-76
2022/06/01 03:33:10;;;;;;;2.80;2.07;;;8.20;99.90;;;;;;5123413;27;20392;-76
2022/06/01 03:35:38;;;;;;;3.00;2.33;;;8.20;99.90;;;;;;5116435;27;20698;-77
2022/06/01 03:38:05;;;;;;;2.90;2.13;;;8.20;99.90;;;;;;5100818;28;20254;-76
2022/06/01 03:40:33;;;;;;;2.40;2.20;;;8.20;99.90;;;;;;5099701;28;20233;-76
2022/06/01 03:43:00;;;;;;;3.00;2.20;;;8.20;99.90;;;;;;5100781;28;20589;-76
2022/06/01 03:48:12;;;;;;;3.13;2.30;;;8.30;99.90;;;;;;5111814;27;20543;-76
2022/06/01 03:50:40;;;;;;;2.73;2.30;;;8.30;99.90;;;;;;5120567;27;20318;-77
2022/06/01 03:53:07;;;;;;;2.70;2.30;;;8.30;99.90;;;;;;5101523;27;20220;-76
2022/06/01 03:55:36;;;;;;;2.70;2.30;;;8.30;99.90;;;;;;5101853;28;20231;-76
2022/06/01 03:58:03;;;;;;;3.50;2.60;;;8.40;99.90;;;;;;5112518;27;20320;-76
2022/06/01 04:00:30;;;;;;;2.97;2.23;;;8.40;99.90;;;;;;5098429;28;20311;-77
2022/06/01 04:02:56;;;;;;;2.67;2.40;;;8.40;99.90;;;;;;5096094;28;20757;-76
2022/06/01 04:05:24;;;;;;;3.70;2.83;;;8.50;99.90;;;;;;5097573;27;20325;-77
2022/06/01 04:07:52;;;;;;;3.87;2.67;;;8.60;99.90;;;;;;5115561;27;20691;-77
2022/06/01 04:10:21;;;;;;;2.87;2.30;;;8.60;99.90;;;;;;5101495;28;20228;-77
2022/06/01 04:12:48;;;;;;;2.53;2.33;;;8.70;99.90;;;;;;5116252;27;20224;-77
2022/06/01 04:15:15;;;;;;;2.40;2.13;;;8.80;99.90;;;;;;5113947;27;20322;-77
2022/06/01 04:17:42;;;;;;;2.60;2.40;;;8.90;99.90;;;;;;5101135;28;20583;-77
2022/06/01 04:20:10;;;;;;;3.10;2.50;;;9.00;99.90;;;;;;5096548;28;20314;-77
2022/06/01 04:22:40;;;;;;;2.97;2.43;;;9.10;99.90;;;;;;5103986;28;20231;-75
2022/06/01 04:25:10;;;;;;;2.60;2.40;;;9.20;99.90;;;;;;5092473;27;20231;-75
2022/06/01 04:27:38;;;;;;;2.47;2.20;;;9.20;99.90;;;;;;5122294;27;20629;-75
2022/06/01 04:30:10;;;;;;;3.13;2.27;;;9.40;99.90;;;;;;5123871;27;20233;-75
2022/06/01 04:32:37;;;;;;;3.47;2.30;;;9.40;99.90;;;;;;5099377;27;20231;-76
2022/06/01 04:35:05;;;;;;;2.83;2.17;;;9.50;99.90;;;;;;5105553;27;20237;-74
2022/06/01 04:37:32;;;;;;;2.53;2.10;;;9.60;99.90;;;;;;5119534;27;20254;-76
2022/06/01 04:39:59;;;;;;;2.27;2.07;;;9.70;99.90;;;;;;5116979;27;20815;-77
2022/06/01 04:42:27;;;;;;;2.80;2.23;;;9.90;99.90;;;;;;5093518;27;20357;-75
2022/06/01 04:44:54;;;;;;;2.37;1.90;;;10.00;99.90;;;;;;5100496;27;20728;-76
2022/06/01 04:47:21;;;;;;;2.47;2.20;;;10.20;99.90;;;;;;5119451;27;20605;-76
2022/06/01 04:49:48;;;;;;;2.20;1.87;;;10.40;99.90;;;;;;5119753;27;20271;-76
2022/06/01 04:52:15;;;;;;;2.13;1.93;;;10.50;99.90;;;;;;5116554;27;20223;-76
2022/06/01 04:54:43;;;;;;;2.20;2.00;;;10.70;99.90;;;;;;5104383;27;20398;-76
2022/06/01 04:57:10;;;;;;;2.73;1.73;;;10.90;99.90;;;;;;5099181;27;20225;-76
2022/06/01 04:59:38;;;;;;;2.13;1.80;;;11.10;99.90;;;;;;5106707;27;20235;-76
2022/06/01 05:02:06;;;;;;;2.87;2.00;;;11.20;99.90;;;;;;5121694;27;20226;-76
2022/06/01 05:04:33;;;;;;;4.17;1.73;;;11.30;99.90;;;;;;5118977;27;20225;-76
2022/06/01 05:07:00;;;;;;;2.10;1.90;;;11.50;99.90;;;;;;5120043;27;20224;-77
2022/06/01 05:09:28;;;;;;;3.00;1.80;;;11.50;99.90;;;;;;5102086;27;20244;-76
2022/06/01 05:11:56;;;;;;;2.43;2.07;;;11.60;99.90;;;;;;5120465;27;21153;-77
2022/06/01 05:14:23;;;;;;;2.93;1.93;;;11.60;99.90;;;;;;5121045;27;20975;-78
2022/06/01 05:16:51;;;;;;;2.30;2.03;;;11.70;99.90;;;;;;5126611;27;20222;-78
2022/06/01 05:19:18;;;;;;;2.07;1.90;;;11.80;99.90;;;;;;5122862;27;20332;-77
2022/06/01 05:21:45;;;;;;;4.33;2.17;;;11.80;99.90;;;;;;5122411;27;20247;-77
2022/06/01 05:24:12;;;;;;;3.47;2.40;;;11.80;99.90;;;;;;5113852;27;20218;-77
2022/06/01 05:26:43;;;;;;;2.83;2.30;;;11.90;99.90;;;;;;5118630;27;20241;-80
2022/06/01 05:29:15;;;;;;;2.53;2.33;;;11.90;99.90;;;;;;5082871;27;20223;-80
2022/06/01 05:31:41;;;;;;;2.83;2.30;;;12.00;99.90;;;;;;5090384;27;21011;-79
2022/06/01 05:34:10;;;;;;;3.43;2.60;;;11.90;99.90;;;;;;5104628;27;20223;-80
2022/06/01 05:36:37;;;;;;;3.17;2.40;;;11.90;99.90;;;;;;5108844;27;20223;-79
2022/06/01 05:39:04;;;;;;;2.53;2.30;;;11.80;99.90;;;;;;5124547;27;20224;-80
2022/06/01 05:41:31;;;;;;;2.30;2.10;;;11.80;99.90;;;;;;5110807;27;20871;-80
2022/06/01 05:43:58;;;;;;;2.90;2.63;;;11.80;99.90;;;;;;5123935;27;20723;-80
2022/06/01 05:46:25;;;;;;;3.90;2.50;;;11.70;99.90;;;;;;5108908;27;20228;-80
2022/06/01 05:48:52;;;;;;;3.63;2.73;;;11.70;99.90;;;;;;5126629;27;20249;-81
2022/06/01 05:51:21;;;;;;;3.40;2.90;;;11.60;99.90;;;;;;5102706;28;20228;-80
2022/06/01 05:53:48;;;;;;;3.50;2.80;;;11.50;99.90;;;;;;5107897;27;20233;-80
2022/06/01 05:56:15;;;;;;;4.27;2.93;;;11.50;99.90;;;;;;5123681;27;20300;-80
2022/06/01 05:58:41;;;;;;;3.20;2.90;;;11.30;99.90;;;;;;5125300;27;20303;-81
2022/06/01 06:01:09;;;;;;;4.40;3.33;;;11.30;99.90;;;;;;5118694;27;20223;-81
2022/06/01 06:03:36;;;;;;;3.53;3.00;;;11.20;99.90;;;;;;5121904;27;20229;-81
2022/06/01 06:06:13;;;;;;;4.47;3.90;;;11.20;99.90;;;;;;5106945;27;20221;-81
2022/06/01 06:08:44;;;;;;;4.77;3.23;;;11.10;99.90;;;;;;5106360;27;20226;-81
2022/06/01 06:11:13;;;;;;;5.83;3.53;;;11.00;99.90;;;;;;5105142;27;20467;-82
2022/06/01 06:13:40;;;;;;;4.83;3.57;;;11.00;99.90;;;;;;5105511;27;20294;-81
2022/06/01 06:16:10;;;;;;;4.97;3.90;;;10.90;99.90;;;;;;5103671;27;20221;-81
2022/06/01 06:18:37;;;;;;;4.87;4.10;;;10.80;99.90;;;;;;5093932;27;20353;-81
2022/06/01 06:21:05;;;;;;;6.73;4.90;;;10.80;99.90;;;;;;5103469;27;20221;-81
2022/06/01 06:23:32;;;;;;;10.47;5.93;;;10.60;99.90;;;;;;5129837;27;20225;-81
2022/06/01 06:26:01;;;;;;;9.17;7.40;;;10.50;99.90;;;;;;5107622;27;20643;-82
2022/06/01 06:28:29;;;;;;;12.37;6.93;;;10.40;99.90;;;;;;5126351;27;20751;-82
2022/06/01 06:30:56;;;;;;;9.83;7.53;;;10.30;99.90;;;;;;5122060;27;20236;-82
2022/06/01 06:33:23;;;;;;;10.57;8.03;;;10.20;99.90;;;;;;5103205;27;20227;-82
2022/06/01 06:35:58;;;;;;;11.87;9.50;;;10.20;99.90;;;;;;5124235;27;20320;-81
2022/06/01 06:38:28;;;;;;;10.77;9.57;;;10.00;99.90;;;;;;5120954;27;20504;-82
2022/06/01 06:40:55;;;;;;;11.57;9.97;;;10.00;99.90;;;;;;5129543;27;20245;-80
2022/06/01 06:43:25;;;;;;;12.47;10.40;;;9.90;99.90;;;;;;5117512;27;20282;-81
2022/06/01 06:45:56;;;;;;;15.50;10.83;;;9.90;99.90;;;;;;5115692;27;20416;-81
2022/06/01 06:48:23;;;;;;;13.93;11.13;;;9.80;99.90;;;;;;5125138;27;20235;-82
2022/06/01 06:50:50;;;;;;;15.13;11.57;;;9.80;99.90;;;;;;5105345;27;20298;-81
2022/06/01 06:53:17;;;;;;;15.80;12.13;;;9.70;99.90;;;;;;5099785;27;20225;-82
2022/06/01 06:55:44;;;;;;;15.30;11.43;;;9.70;99.90;;;;;;5106830;27;20241;-81
2022/06/01 06:58:11;;;;;;;14.43;12.43;;;9.70;99.90;;;;;;5119154;27;20239;-81
2022/06/01 07:00:40;;;;;;;24.57;21.87;;;9.70;99.90;;;;;;5105111;27;20328;-82
2022/06/01 07:03:08;;;;;;;22.53;17.80;;;9.70;99.90;;;;;;5106386;27;20225;-83
2022/06/01 07:08:19;;;;;;;34.20;29.03;;;9.60;99.90;;;;;;5124824;27;20688;-81
2022/06/01 07:10:46;;;;;;;15.07;13.47;;;9.60;99.90;;;;;;5121109;27;20231;-82
2022/06/01 07:13:13;;;;;;;15.17;12.10;;;9.60;99.90;;;;;;5103594;28;20292;-82
2022/06/01 07:15:42;;;;;;;24.27;20.07;;;9.60;99.90;;;;;;5102308;28;20224;-82
2022/06/01 07:18:09;;;;;;;13.70;12.30;;;9.50;99.90;;;;;;5103526;27;20220;-81
2022/06/01 07:20:36;;;;;;;13.10;11.60;;;9.60;99.90;;;;;;5124006;27;20220;-82
2022/06/01 07:23:03;;;;;;;16.40;13.97;;;9.60;99.90;;;;;;5121543;27;20631;-82
2022/06/01 07:25:30;;;;;;;17.67;15.83;;;9.60;99.90;;;;;;5122084;27;20227;-82
2022/06/01 07:27:57;;;;;;;10.90;9.80;;;9.60;99.90;;;;;;5122782;27;20340;-81
2022/06/01 07:30:24;;;;;;;21.67;19.33;;;9.60;99.90;;;;;;5118450;27;20874;-82
2022/06/01 07:32:53;;;;;;;14.20;10.73;;;9.60;99.90;;;;;;5124671;27;20291;-82
2022/06/01 07:35:20;;;;;;;11.93;10.40;;;9.70;99.90;;;;;;5103240;27;20221;-82
2022/06/01 07:43:20;;;;;;;12.63;11.33;;;9.80;99.90;;;;;;5095112;27;20314;-82
2022/06/01 07:45:49;;;;;;;18.90;16.90;;;9.90;99.90;;;;;;5121375;27;20230;-82
2022/06/01 07:48:17;;;;;;;14.97;12.80;;;9.90;99.90;;;;;;5116817;27;20586;-82
2022/06/01 07:50:45;;;;;;;22.63;20.33;;;10.00;99.90;;;;;;5117867;27;20707;-81
2022/06/01 07:53:12;;;;;;;12.03;10.80;;;10.10;99.90;;;;;;5121496;27;20641;-82
2022/06/01 07:55:41;;;;;;;39.17;32.60;;;10.20;99.90;;;;;;5122968;27;20228;-82
2022/06/01 07:58:08;;;;;;;13.23;11.93;;;10.30;99.90;;;;;;5106297;27;20281;-82
2022/06/01 08:00:34;;;;;;;11.07;9.97;;;10.50;99.90;;;;;;5107663;27;20327;-82
2022/06/01 08:03:01;;;;;;;10.97;9.87;;;10.70;99.90;;;;;;5120595;27;20280;-82
2022/06/01 08:05:33;;;;;;;11.57;10.43;;;10.90;99.90;;;;;;5123250;27;20314;-82
2022/06/01 08:08:00;;;;;;;12.03;10.83;;;11.00;99.90;;;;;;5121046;27;20737;-81
2022/06/01 08:10:27;;;;;;;10.47;9.47;;;11.20;99.90;;;;;;5124426;27;20300;-82
2022/06/01 08:13:09;;;;;;;10.63;9.53;;;11.30;99.90;;;;;;5121682;27;20335;-82
2022/06/01 08:15:38;;;;;;;11.50;9.47;;;11.50;99.90;;;;;;5107129;27;20282;-82
2022/06/01 08:18:05;;;;;;;10.93;9.67;;;11.50;99.90;;;;;;5118071;27;20236;-81
2022/06/01 08:20:34;;;;;;;10.60;9.50;;;11.60;99.90;;;;;;5103087;27;20312;-82
2022/06/01 08:23:01;;;;;;;10.33;9.33;;;11.70;99.90;;;;;;5122337;27;20784;-80
2022/06/01 08:25:30;;;;;;;9.27;8.37;;;11.70;99.90;;;;;;5104952;27;20224;-80
2022/06/01 08:27:57;;;;;;;11.00;9.83;;;11.80;99.90;;;;;;5124669;27;20709;-81
2022/06/01 08:30:25;;;;;;;11.20;10.17;;;11.90;99.90;;;;;;5107077;27;20823;-81
2022/06/01 08:32:54;;;;;;;12.23;9.93;;;11.90;99.90;;;;;;5102916;27;20227;-81
2022/06/01 08:35:23;;;;;;;10.97;9.87;;;12.10;99.90;;;;;;5105419;27;20232;-81
2022/06/01 08:37:51;;;;;;;11.13;10.00;;;12.10;99.90;;;;;;5105648;27;20217;-81
2022/06/01 08:40:21;;;;;;;9.37;8.47;;;12.20;99.90;;;;;;5120132;27;20515;-81
2022/06/01 08:42:56;;;;;;;9.47;8.57;;;12.30;99.90;;;;;;5133886;27;20231;-81
2022/06/01 08:45:24;;;;;;;9.53;8.53;;;12.40;99.90;;;;;;5131233;27;20228;-81
2022/06/01 08:47:51;;;;;;;8.77;7.90;;;12.50;99.90;;;;;;5112192;27;20643;-81
2022/06/01 08:50:25;;;;;;;8.40;7.50;;;12.60;99.90;;;;;;5107536;27;20237;-80
2022/06/01 08:52:54;;;;;;;9.57;8.57;;;12.70;99.90;;;;;;5120304;27;20220;-80
2022/06/01 08:55:21;;;;;;;8.50;7.70;;;12.80;99.90;;;;;;5125835;27;20235;-79
2022/06/01 08:57:54;;;;;;;8.70;7.87;;;12.90;99.90;;;;;;5127460;27;20227;-79
2022/06/01 09:00:21;;;;;;;9.03;8.10;;;13.00;99.90;;;;;;5119487;27;20310;-79
2022/06/01 09:02:58;;;;;;;8.80;7.13;;;13.10;99.90;;;;;;5133099;27;20217;-80
2022/06/01 09:05:32;;;;;;;7.63;6.67;;;13.20;99.90;;;;;;5118395;27;20238;-80
2022/06/01 09:08:06;;;;;;;9.43;7.20;;;13.30;99.90;;;;;;5119753;27;20221;-80
2022/06/01 09:10:53;;;;;;;7.77;6.77;;;13.40;99.90;;;;;;5133103;27;20865;-80
2022/06/01 09:13:24;;;;;;;8.40;6.30;;;13.40;99.90;;;;;;5120147;27;20271;-80
2022/06/01 09:15:55;;;;;;;6.50;5.90;;;13.50;99.90;;;;;;5119853;27;20309;-80
2022/06/01 09:18:26;;;;;;;7.27;6.57;;;13.50;99.90;;;;;;5108976;27;20225;-80
2022/06/01 09:23:39;;;;;;;7.30;6.60;;;13.50;99.90;;;;;;5108506;27;20228;-80
2022/06/01 09:26:06;;;;;;;7.33;6.60;;;13.60;99.90;;;;;;5131276;27;20231;-80
2022/06/01 09:28:39;;;;;;;6.93;6.23;;;13.70;99.90;;;;;;5124159;27;20299;-81
2022/06/01 09:31:19;;;;;;;6.93;6.00;;;13.70;99.90;;;;;;5104718;27;20221;-80
2022/06/01 09:33:46;;;;;;;6.30;5.70;;;13.80;99.90;;;;;;5110838;27;20437;-81
2022/06/01 09:36:25;;;;;;;6.30;5.70;;;14.10;99.90;;;;;;5124475;27;20240;-80
2022/06/01 09:38:55;;;;;;;6.10;5.50;;;14.30;99.90;;;;;;5126548;27;20226;-80
2022/06/01 09:41:30;;;;;;;6.00;5.50;;;14.60;99.90;;;;;;5110184;27;20325;-81
2022/06/01 09:43:59;;;;;;;4.80;4.40;;;15.00;99.90;;;;;;5131020;27;20219;-80
2022/06/01 09:46:33;;;;;;;4.50;4.10;;;15.40;99.90;;;;;;5130296;27;20224;-81
2022/06/01 09:49:03;;;;;;;5.10;4.50;;;15.70;99.90;;;;;;5107605;27;20254;-81
2022/06/01 09:51:33;;;;;;;3.87;3.57;;;15.90;99.90;;;;;;5103719;27;20719;-80
2022/06/01 09:54:13;;;;;;;4.07;3.67;;;16.10;99.90;;;;;;5130419;27;20799;-80
2022/06/01 09:56:45;;;;;;;3.37;3.13;;;16.20;99.90;;;;;;5106469;27;20220;-81
2022/06/01 10:07:49;;;;;;;3.20;2.90;;;17.30;99.90;;;;;;5120856;27;20238;-80
2022/06/01 10:10:26;;;;;;;3.03;2.50;;;17.60;99.90;;;;;;5111823;27;20320;-81
2022/06/01 10:12:58;;;;;;;2.78;2.40;;;18.10;99.60;;;;;;5105972;27;20209;-81
2022/06/01 10:15:31;;;;;;;2.42;2.10;;;18.60;99.30;;;;;;5106613;27;20239;-81
2022/06/01 10:18:02;;;;;;;2.63;2.20;;;19.20;98.30;;;;;;5121117;27;20301;-80
2022/06/01 10:20:32;;;;;;;3.05;2.15;;;19.60;96.90;;;;;;5135452;27;20259;-81
2022/06/01 10:23:03;;;;;;;3.75;2.50;;;20.10;95.80;;;;;;5118901;27;20993;-81
2022/06/01 10:25:38;;;;;;;2.58;2.20;;;20.40;96.00;;;;;;5105569;27;20235;-81
2022/06/01 10:28:10;;;;;;;2.33;2.13;;;20.70;94.60;;;;;;5123720;27;20236;-80
2022/06/01 10:30:39;;;;;;;2.55;2.30;;;20.80;94.50;;;;;;5131050;27;20681;-81
2022/06/01 10:33:13;;;;;;;3.60;3.17;;;21.00;94.40;;;;;;5113620;27;20214;-81
2022/06/01 10:35:46;;;;;;;2.70;2.50;;;21.10;93.70;;;;;;5125200;27;20999;-80
2022/06/01 10:38:18;;;;;;;3.15;2.30;;;21.20;91.90;;;;;;5101373;27;20217;-80
2022/06/01 10:40:54;;;;;;;2.22;2.03;;;21.40;92.00;;;;;;5123237;27;20235;-81
2022/06/01 10:43:39;;;;;;;2.38;2.17;;;21.50;91.10;;;;;;5102202;27;20228;-81
2022/06/01 10:46:18;;;;;;;2.65;2.25;;;21.70;91.00;;;;;;5124319;27;20893;-81
2022/06/01 10:48:55;;;;;;;2.50;1.90;;;22.00;90.00;;;;;;5124417;27;20300;-81
2022/06/01 10:51:28;;;;;;;1.65;1.40;;;22.30;89.00;;;;;;5117821;27;20251;-81
2022/06/01 10:54:04;;;;;;;1.92;1.80;;;22.70;85.90;;;;;;5103954;27;20225;-81
2022/06/01 10:56:33;;;;;;;1.90;1.60;;;23.10;85.80;;;;;;5126240;27;20978;-81
2022/06/01 10:59:05;;;;;;;2.60;1.60;;;23.30;83.80;;;;;;5122475;27;20221;-81
2022/06/01 11:01:41;;;;;;;1.90;1.65;;;23.50;81.40;;;;;;5134057;27;20228;-81
2022/06/01 11:04:43;;;;;;;2.83;2.28;;;23.60;82.00;;;;;;5105502;27;20708;-81
2022/06/01 11:07:49;;;;;;;3.05;2.72;;;23.70;79.50;;;;;;5104425;27;20224;-81
2022/06/01 11:10:25;;;;;;;2.80;2.50;;;23.80;81.20;;;;;;5116067;27;20276;-81
2022/06/01 11:13:16;;;;;;;2.70;2.20;;;23.90;80.70;;;;;;5105177;27;20224;-81
2022/06/01 11:15:55;;;;;;;3.08;2.60;;;23.90;78.50;;;;;;5126513;27;20268;-82
2022/06/01 11:18:43;;;;;;;2.40;2.20;;;23.90;78.20;;;;;;5107830;27;20239;-80
2022/06/01 11:21:19;;;;;;;2.78;2.58;;;24.00;76.90;;;;;;5094067;27;20229;-81
2022/06/01 11:24:05;;;;;;;3.45;2.78;;;24.20;75.40;;;;;;5095017;27;20610;-81
2022/06/01 11:26:46;;;;;;;3.65;2.47;;;24.30;73.30;;;;;;5114082;27;20421;-81
2022/06/01 11:29:33;;;;;;;2.30;2.10;;;24.60;75.30;;;;;;5115763;27;20256;-81
2022/06/01 11:32:05;;;;;;;3.35;2.55;;;24.70;73.30;;;;;;5117999;27;20853;-81
2022/06/01 11:34:44;;;;;;;2.60;2.33;;;24.70;73.60;;;;;;5121250;27;20311;-81
2022/06/01 11:37:18;;;;;;;3.05;2.58;;;24.70;69.90;;;;;;5131895;27;20411;-81
2022/06/01 11:39:51;;;;;;;2.60;2.40;;;24.50;70.50;;;;;;5131235;27;20292;-81
2022/06/01 11:42:28;;;;;;;4.00;2.42;;;24.30;70.60;;;;;;5099687;27;20431;-81
2022/06/01 11:45:02;;;;;;;3.05;2.75;;;24.10;71.20;;;;;;5126860;27;20247;-81
2022/06/01 11:47:36;;;;;;;3.00;2.70;;;23.90;69.90;;;;;;5107260;28;20326;-80
2022/06/01 11:50:13;;;;;;;3.00;2.67;;;23.80;72.60;;;;;;5106196;27;20293;-81
2022/06/01 11:52:46;;;;;;;3.10;2.80;;;23.70;72.10;;;;;;5107677;27;20913;-81
2022/06/01 11:55:24;;;;;;;4.45;2.80;;;23.70;72.30;;;;;;5112023;27;20290;-81
2022/06/01 11:57:54;;;;;;;3.10;2.80;;;23.70;71.60;;;;;;5103903;27;20309;-81
2022/06/01 12:00:35;;;;;;;4.78;3.40;;;23.70;70.40;;;;;;5127305;27;20312;-81
2022/06/01 12:03:25;;;;;;;3.10;2.85;;;23.70;69.90;;;;;;5107418;27;21843;-81
2022/06/01 12:06:02;;;;;;;3.40;2.78;;;23.70;70.20;;;;;;5111891;27;20304;-80
2022/06/01 12:08:33;;;;;;;2.97;2.70;;;23.50;71.40;;;;;;5126588;27;20307;-80
2022/06/01 12:11:03;;;;;;;2.75;2.55;;;23.40;70.30;;;;;;5127765;27;20702;-80
2022/06/01 12:13:32;;;;;;;2.38;2.08;;;23.30;70.70;;;;;;5123208;27;20232;-81
2022/06/01 12:16:21;;;;;;;4.30;2.78;;;23.10;70.90;;;;;;5114643;27;20663;-81
2022/06/01 12:19:09;;;;;;;3.58;2.50;;;23.00;69.70;;;;;;5128480;27;20757;-81
2022/06/01 12:21:55;;;;;;;3.25;2.63;;;22.90;70.00;;;;;;5133174;27;20815;-80
2022/06/01 12:30:54;;;;;;;5.13;3.53;;;23.00;69.30;;;;;;5120507;27;20630;-80
2022/06/01 12:33:22;;;;;;;4.22;3.30;;;23.20;70.50;;;;;;5105934;27;20784;-80
2022/06/01 12:35:57;;;;;;;4.32;3.25;;;23.20;69.10;;;;;;5106710;27;20237;-80
2022/06/01 12:38:31;;;;;;;3.75;3.40;;;23.30;67.70;;;;;;5127879;27;20224;-80
2022/06/01 12:41:13;;;;;;;4.30;3.30;;;23.30;68.30;;;;;;5106543;27;20224;-80
2022/06/01 12:43:47;;;;;;;3.30;3.00;;;23.20;68.10;;;;;;5107129;27;20221;-81
2022/06/01 12:46:22;;;;;;;5.95;3.97;;;23.10;68.50;;;;;;5110945;27;20237;-80
2022/06/01 12:48:50;;;;;;;5.25;3.83;;;23.00;68.60;;;;;;5118671;27;20996;-81
2022/06/01 12:51:18;;;;;;;4.90;3.72;;;22.90;69.10;;;;;;5105810;27;20221;-80
2022/06/01 12:53:48;;;;;;;4.20;3.50;;;22.80;69.10;;;;;;5122792;27;20229;-80
2022/06/01 12:56:17;;;;;;;5.00;4.50;;;22.80;69.30;;;;;;5122465;27;20226;-81
2022/06/01 12:58:45;;;;;;;7.55;4.70;;;22.70;68.40;;;;;;5098241;27;20225;-81
2022/06/01 13:01:12;;;;;;;5.78;4.30;;;22.70;67.90;;;;;;5108200;27;20254;-80
2022/06/01 13:03:45;;;;;;;4.53;4.13;;;22.70;67.90;;;;;;5122925;27;20244;-80
2022/06/01 13:06:18;;;;;;;6.03;4.90;;;22.70;66.90;;;;;;5108579;27;20233;-80
2022/06/01 13:08:46;;;;;;;5.38;4.88;;;22.50;66.80;;;;;;5120558;27;20251;-80
2022/06/01 13:11:17;;;;;;;6.03;5.15;;;22.40;67.90;;;;;;5096896;27;20342;-79
2022/06/01 13:13:45;;;;;;;7.03;5.18;;;22.20;68.20;;;;;;5131047;27;20253;-80
2022/06/01 13:16:12;;;;;;;5.55;4.50;;;22.00;69.00;;;;;;5124870;27;20581;-80
2022/06/01 13:18:42;;;;;;;6.13;4.93;;;21.80;69.10;;;;;;5134690;27;20225;-80
2022/06/01 13:21:17;;;;;;;5.90;4.38;;;21.70;68.70;;;;;;5109211;27;20228;-80
2022/06/01 13:23:54;;;;;;;6.60;6.00;;;21.50;68.50;;;;;;5122948;27;20284;-80
2022/06/01 13:26:29;;;;;;;6.65;5.35;;;21.40;69.50;;;;;;5102326;27;20233;-80
2022/06/01 13:29:03;;;;;;;3.42;2.92;;;21.30;69.20;;;;;;5108595;27;20674;-80
2022/06/01 13:31:30;;;;;;;3.38;2.40;;;21.10;68.20;;;;;;5104199;27;20258;-80
2022/06/01 13:33:59;;;;;;;1.88;1.75;;;20.70;67.70;;;;;;5124592;27;20969;-80
2022/06/01 13:36:30;;;;;;;3.20;2.30;;;20.10;68.20;;;;;;5109594;27;20637;-79
2022/06/01 13:39:07;;;;;;;2.10;2.00;;;19.50;68.90;;;;;;5106369;27;20221;-80